sensor_id;sensor_type;location;lat;lon;timestamp;pressure;altitude;pressure_sealevel;temperature;humidity
4398;BME280;2213;49.720;7.296;2023-07-31T00:01:45;97973.47;;;19.48;100.00
4398;BME280;2213;49.720;7.296;2023-07-31T00:04:17;97973.72;;;19.47;100.00
4398;BME280;2213;49.720;7.296;2023-07-31T00:06:46;97978.22;;;19.46;100.00
4398;BME280;2213;49.720;7.296;2023-07-31T00:09:17;97971.38;;;19.50;100.00
4398;BME280;2213;49.720;7.296;2023-07-31T00:11:47;97967.59;;;19.46;100.00
4398;BME280;2213;49.720;7.296;2023-07-31T00:14:18;97981.78;;;19.40;100.00
4398;BME280;2213;49.720;7.296;2023-07-31T00:16:47;97979.41;;;19.39;100.00
4398;BME280;2213;49.720;7.296;2023-07-31T00:19:21;97965.88;;;19.40;100.00
4398;BME280;2213;49.720;7.296;2023-07-31T00:21:51;97965.34;;;19.38;100.00
4398;BME280;2213;49.720;7.296;2023-07-31T00:24:20;97964.78;;;19.36;100.00
4398;BME280;2213;49.720;7.296;2023-07-31T00:26:51;97978.59;;;19.38;100.00
4398;BME280;2213;49.720;7.296;2023-07-31T00:29:22;97977.66;;;19.44;100.00
4398;BME280;2213;49.720;7.296;2023-07-31T00:31:53;97969.69;;;19.44;100.00
4398;BME280;2213;49.720;7.296;2023-07-31T00:34:24;97968.78;;;19.39;100.00
4398;BME280;2213;49.720;7.296;2023-07-31T00:36:55;97976.44;;;19.35;100.00
4398;BME280;2213;49.720;7.296;2023-07-31T00:39:24;97977.56;;;19.39;100.00
4398;BME280;2213;49.720;7.296;2023-07-31T00:41:54;97974.91;;;19.39;100.00
4398;BME280;2213;49.720;7.296;2023-07-31T00:44:23;97982.56;;;19.36;100.00
4398;BME280;2213;49.720;7.296;2023-07-31T00:46:53;97980.22;;;19.39;100.00
4398;BME280;2213;49.720;7.296;2023-07-31T00:49:25;97982.41;;;19.42;100.00
4398;BME280;2213;49.720;7.296;2023-07-31T00:51:55;97968.78;;;19.39;100.00
4398;BME280;2213;49.720;7.296;2023-07-31T00:54:26;97970.75;;;19.43;100.00
4398;BME280;2213;49.720;7.296;2023-07-31T00:56:58;97975.41;;;19.36;100.00
4398;BME280;2213;49.720;7.296;2023-07-31T00:59:28;97962.38;;;19.35;100.00
4398;BME280;2213;49.720;7.296;2023-07-31T01:01:59;97964.97;;;19.30;100.00
4398;BME280;2213;49.720;7.296;2023-07-31T01:04:30;97957.56;;;19.32;100.00
4398;BME280;2213;49.720;7.296;2023-07-31T01:07:09;97971.13;;;19.35;100.00
4398;BME280;2213;49.720;7.296;2023-07-31T01:09:51;97964.78;;;19.36;100.00
4398;BME280;2213;49.720;7.296;2023-07-31T01:12:26;97966.94;;;19.39;100.00
4398;BME280;2213;49.720;7.296;2023-07-31T01:15:08;97961.03;;;19.32;100.00
4398;BME280;2213;49.720;7.296;2023-07-31T01:17:39;97958.91;;;19.34;100.00
4398;BME280;2213;49.720;7.296;2023-07-31T01:20:15;97966.06;;;19.34;100.00
4398;BME280;2213;49.720;7.296;2023-07-31T01:26:04;97961.25;;;19.31;100.00
4398;BME280;2213;49.720;7.296;2023-07-31T01:28:50;97948.88;;;19.36;100.00
4398;BME280;2213;49.720;7.296;2023-07-31T01:31:24;97954.19;;;19.36;100.00
4398;BME280;2213;49.720;7.296;2023-07-31T01:33:59;97952.06;;;19.38;100.00
4398;BME280;2213;49.720;7.296;2023-07-31T01:36:30;97945.97;;;19.38;100.00
4398;BME280;2213;49.720;7.296;2023-07-31T01:39:00;97948.88;;;19.36;100.00
4398;BME280;2213;49.720;7.296;2023-07-31T01:41:33;97938.28;;;19.36;100.00
4398;BME280;2213;49.720;7.296;2023-07-31T01:44:04;97938.28;;;19.36;100.00
4398;BME280;2213;49.720;7.296;2023-07-31T01:46:34;97928.69;;;19.35;100.00
4398;BME280;2213;49.720;7.296;2023-07-31T01:49:03;97924.44;;;19.34;100.00
4398;BME280;2213;49.720;7.296;2023-07-31T01:51:34;97924.94;;;19.31;100.00
4398;BME280;2213;49.720;7.296;2023-07-31T01:54:07;97915.94;;;19.32;100.00
4398;BME280;2213;49.720;7.296;2023-07-31T01:56:39;97918.50;;;19.27;100.00
4398;BME280;2213;49.720;7.296;2023-07-31T01:59:10;97926.72;;;19.26;100.00
4398;BME280;2213;49.720;7.296;2023-07-31T02:01:39;97927.94;;;19.18;100.00
4398;BME280;2213;49.720;7.296;2023-07-31T02:04:10;97923.13;;;19.15;100.00
4398;BME280;2213;49.720;7.296;2023-07-31T02:06:41;97919.38;;;19.11;100.00
4398;BME280;2213;49.720;7.296;2023-07-31T02:09:11;97919.38;;;19.11;100.00
4398;BME280;2213;49.720;7.296;2023-07-31T02:11:43;97922.00;;;19.11;100.00
4398;BME280;2213;49.720;7.296;2023-07-31T02:14:15;97911.47;;;19.16;100.00
4398;BME280;2213;49.720;7.296;2023-07-31T02:16:46;97914.59;;;19.13;100.00
4398;BME280;2213;49.720;7.296;2023-07-31T02:19:16;97920.91;;;19.07;100.00
4398;BME280;2213;49.720;7.296;2023-07-31T02:21:46;97922.41;;;19.03;100.00
4398;BME280;2213;49.720;7.296;2023-07-31T02:24:15;97922.91;;;19.00;100.00
4398;BME280;2213;49.720;7.296;2023-07-31T02:26:46;97922.09;;;18.99;100.00
4398;BME280;2213;49.720;7.296;2023-07-31T02:29:16;97915.53;;;19.02;100.00
4398;BME280;2213;49.720;7.296;2023-07-31T02:31:45;97914.97;;;19.00;100.00
4398;BME280;2213;49.720;7.296;2023-07-31T02:34:15;97914.91;;;18.95;100.00
4398;BME280;2213;49.720;7.296;2023-07-31T02:36:45;97915.53;;;18.85;100.00
4398;BME280;2213;49.720;7.296;2023-07-31T02:39:14;97919.44;;;18.78;100.00
4398;BME280;2213;49.720;7.296;2023-07-31T02:41:47;97915.47;;;18.80;100.00
4398;BME280;2213;49.720;7.296;2023-07-31T02:44:17;97910.19;;;18.80;100.00
4398;BME280;2213;49.720;7.296;2023-07-31T02:46:45;97904.94;;;18.85;100.00
4398;BME280;2213;49.720;7.296;2023-07-31T02:49:17;97900.13;;;18.82;100.00
4398;BME280;2213;49.720;7.296;2023-07-31T02:51:47;97898.22;;;18.78;100.00
4398;BME280;2213;49.720;7.296;2023-07-31T02:54:19;97911.22;;;18.79;100.00
4398;BME280;2213;49.720;7.296;2023-07-31T02:56:51;97913.06;;;18.79;100.00
4398;BME280;2213;49.720;7.296;2023-07-31T02:59:21;97907.94;;;18.72;100.00
4398;BME280;2213;49.720;7.296;2023-07-31T03:01:50;97917.56;;;18.78;100.00
4398;BME280;2213;49.720;7.296;2023-07-31T03:04:21;97909.38;;;18.80;100.00
4398;BME280;2213;49.720;7.296;2023-07-31T03:06:50;97909.59;;;18.78;100.00
4398;BME280;2213;49.720;7.296;2023-07-31T03:09:19;97910.91;;;18.76;100.00
4398;BME280;2213;49.720;7.296;2023-07-31T03:11:50;97914.59;;;18.75;100.00
4398;BME280;2213;49.720;7.296;2023-07-31T03:14:20;97904.78;;;18.75;100.00
4398;BME280;2213;49.720;7.296;2023-07-31T03:16:51;97912.38;;;18.67;100.00
4398;BME280;2213;49.720;7.296;2023-07-31T03:19:22;97915.63;;;18.57;100.00
4398;BME280;2213;49.720;7.296;2023-07-31T03:21:52;97913.78;;;18.57;100.00
4398;BME280;2213;49.720;7.296;2023-07-31T03:24:21;97915.41;;;18.58;100.00
4398;BME280;2213;49.720;7.296;2023-07-31T03:26:53;97910.09;;;18.58;100.00
4398;BME280;2213;49.720;7.296;2023-07-31T03:29:24;97906.09;;;18.56;100.00
4398;BME280;2213;49.720;7.296;2023-07-31T03:31:54;97903.34;;;18.51;100.00
4398;BME280;2213;49.720;7.296;2023-07-31T03:34:24;97903.34;;;18.51;100.00
4398;BME280;2213;49.720;7.296;2023-07-31T03:36:56;97908.44;;;18.52;100.00
4398;BME280;2213;49.720;7.296;2023-07-31T03:39:25;97905.44;;;18.49;100.00
4398;BME280;2213;49.720;7.296;2023-07-31T03:41:56;97901.88;;;18.43;100.00
4398;BME280;2213;49.720;7.296;2023-07-31T03:44:26;97911.91;;;18.41;100.00
4398;BME280;2213;49.720;7.296;2023-07-31T03:46:57;97902.94;;;18.42;100.00
4398;BME280;2213;49.720;7.296;2023-07-31T03:49:26;97906.06;;;18.39;100.00
4398;BME280;2213;49.720;7.296;2023-07-31T03:51:56;97903.09;;;18.36;100.00
4398;BME280;2213;49.720;7.296;2023-07-31T03:54:25;97908.41;;;18.36;100.00
4398;BME280;2213;49.720;7.296;2023-07-31T03:56:56;97901.00;;;18.38;100.00
4398;BME280;2213;49.720;7.296;2023-07-31T03:59:26;97894.34;;;18.35;100.00
4398;BME280;2213;49.720;7.296;2023-07-31T04:01:57;97890.56;;;18.31;100.00
4398;BME280;2213;49.720;7.296;2023-07-31T04:04:27;97890.47;;;18.26;100.00
4398;BME280;2213;49.720;7.296;2023-07-31T04:06:58;97892.09;;;18.27;100.00
4398;BME280;2213;49.720;7.296;2023-07-31T04:09:27;97886.97;;;18.21;100.00
4398;BME280;2213;49.720;7.296;2023-07-31T04:12:00;97884.63;;;18.24;100.00
4398;BME280;2213;49.720;7.296;2023-07-31T04:14:31;97878.31;;;18.25;100.00
4398;BME280;2213;49.720;7.296;2023-07-31T04:17:01;97874.28;;;18.23;100.00
4398;BME280;2213;49.720;7.296;2023-07-31T04:19:32;97869.78;;;18.23;100.00
4398;BME280;2213;49.720;7.296;2023-07-31T04:22:03;97865.22;;;18.19;100.00
4398;BME280;2213;49.720;7.296;2023-07-31T04:24:33;97863.34;;;18.19;100.00
4398;BME280;2213;49.720;7.296;2023-07-31T04:27:06;97864.97;;;18.20;100.00
4398;BME280;2213;49.720;7.296;2023-07-31T04:29:35;97867.41;;;18.22;100.00
4398;BME280;2213;49.720;7.296;2023-07-31T04:32:06;97867.94;;;18.24;100.00
4398;BME280;2213;49.720;7.296;2023-07-31T04:34:37;97861.63;;;18.25;100.00
4398;BME280;2213;49.720;7.296;2023-07-31T04:37:07;97866.81;;;18.20;100.00
4398;BME280;2213;49.720;7.296;2023-07-31T04:39:39;97868.31;;;18.16;100.00
4398;BME280;2213;49.720;7.296;2023-07-31T04:42:09;97871.13;;;18.09;100.00
4398;BME280;2213;49.720;7.296;2023-07-31T04:44:38;97870.56;;;17.90;100.00
4398;BME280;2213;49.720;7.296;2023-07-31T04:47:08;97880.41;;;17.95;100.00
4398;BME280;2213;49.720;7.296;2023-07-31T04:49:37;97870.75;;;18.00;100.00
4398;BME280;2213;49.720;7.296;2023-07-31T04:52:08;97868.91;;;18.01;100.00
4398;BME280;2213;49.720;7.296;2023-07-31T04:54:39;97866.09;;;18.07;100.00
4398;BME280;2213;49.720;7.296;2023-07-31T04:57:10;97872.25;;;18.13;100.00
4398;BME280;2213;49.720;7.296;2023-07-31T04:59:39;97862.00;;;18.17;100.00
4398;BME280;2213;49.720;7.296;2023-07-31T05:02:12;97858.97;;;18.08;100.00
4398;BME280;2213;49.720;7.296;2023-07-31T05:04:42;97865.78;;;18.04;100.00
4398;BME280;2213;49.720;7.296;2023-07-31T05:07:12;97857.91;;;18.09;100.00
4398;BME280;2213;49.720;7.296;2023-07-31T05:09:43;97858.16;;;18.07;100.00
4398;BME280;2213;49.720;7.296;2023-07-31T05:12:15;97856.75;;;18.05;100.00
4398;BME280;2213;49.720;7.296;2023-07-31T05:14:45;97852.53;;;18.04;100.00
4398;BME280;2213;49.720;7.296;2023-07-31T05:17:15;97848.38;;;18.08;100.00
4398;BME280;2213;49.720;7.296;2023-07-31T05:19:46;97848.59;;;18.06;100.00
4398;BME280;2213;49.720;7.296;2023-07-31T05:22:16;97851.03;;;18.08;100.00
4398;BME280;2213;49.720;7.296;2023-07-31T05:24:47;97838.00;;;18.06;100.00
4398;BME280;2213;49.720;7.296;2023-07-31T05:27:20;97847.56;;;18.07;100.00
4398;BME280;2213;49.720;7.296;2023-07-31T05:29:52;97847.78;;;18.06;100.00
4398;BME280;2213;49.720;7.296;2023-07-31T05:32:22;97840.56;;;18.01;100.00
4398;BME280;2213;49.720;7.296;2023-07-31T05:34:52;97839.94;;;17.94;100.00
4398;BME280;2213;49.720;7.296;2023-07-31T05:37:22;97833.03;;;17.93;100.00
4398;BME280;2213;49.720;7.296;2023-07-31T05:39:52;97848.75;;;18.00;100.00
4398;BME280;2213;49.720;7.296;2023-07-31T05:42:23;97840.81;;;18.00;100.00
4398;BME280;2213;49.720;7.296;2023-07-31T05:44:53;97828.22;;;18.07;100.00
4398;BME280;2213;49.720;7.296;2023-07-31T05:47:23;97822.56;;;18.15;100.00
4398;BME280;2213;49.720;7.296;2023-07-31T05:49:54;97823.34;;;18.16;100.00
4398;BME280;2213;49.720;7.296;2023-07-31T05:52:23;97825.53;;;18.19;100.00
4398;BME280;2213;49.720;7.296;2023-07-31T05:54:52;97838.19;;;18.17;100.00
4398;BME280;2213;49.720;7.296;2023-07-31T05:57:24;97829.28;;;18.23;100.00
4398;BME280;2213;49.720;7.296;2023-07-31T05:59:54;97829.53;;;18.21;100.00
4398;BME280;2213;49.720;7.296;2023-07-31T06:02:23;97826.88;;;18.21;100.00
4398;BME280;2213;49.720;7.296;2023-07-31T06:04:54;97822.38;;;18.22;100.00
4398;BME280;2213;49.720;7.296;2023-07-31T06:07:26;97822.63;;;18.20;100.00
4398;BME280;2213;49.720;7.296;2023-07-31T06:09:55;97834.81;;;18.21;100.00
4398;BME280;2213;49.720;7.296;2023-07-31T06:12:32;97826.31;;;18.19;100.00
4398;BME280;2213;49.720;7.296;2023-07-31T06:15:03;97834.97;;;18.15;100.00
4398;BME280;2213;49.720;7.296;2023-07-31T06:17:34;97840.03;;;18.16;100.00
4398;BME280;2213;49.720;7.296;2023-07-31T06:20:06;97835.22;;;18.13;100.00
4398;BME280;2213;49.720;7.296;2023-07-31T06:22:36;97827.75;;;18.10;100.00
4398;BME280;2213;49.720;7.296;2023-07-31T06:25:08;97826.47;;;18.13;100.00
4398;BME280;2213;49.720;7.296;2023-07-31T06:27:44;97820.69;;;18.16;100.00
4398;BME280;2213;49.720;7.296;2023-07-31T06:30:14;97823.91;;;18.18;100.00
4398;BME280;2213;49.720;7.296;2023-07-31T06:32:45;97826.41;;;18.07;100.00
4398;BME280;2213;49.720;7.296;2023-07-31T06:35:15;97834.97;;;18.15;100.00
4398;BME280;2213;49.720;7.296;2023-07-31T06:37:46;97834.19;;;18.14;100.00
4398;BME280;2213;49.720;7.296;2023-07-31T06:40:16;97824.06;;;18.11;100.00
4398;BME280;2213;49.720;7.296;2023-07-31T06:42:48;97820.69;;;18.16;100.00
4398;BME280;2213;49.720;7.296;2023-07-31T06:45:18;97822.13;;;18.23;100.00
4398;BME280;2213;49.720;7.296;2023-07-31T06:47:49;97817.97;;;18.27;100.00
4398;BME280;2213;49.720;7.296;2023-07-31T06:50:20;97810.66;;;18.34;100.00
4398;BME280;2213;49.720;7.296;2023-07-31T06:52:50;97801.25;;;18.43;100.00
4398;BME280;2213;49.720;7.296;2023-07-31T06:55:23;97809.28;;;18.48;100.00
4398;BME280;2213;49.720;7.296;2023-07-31T06:57:55;97804.34;;;18.52;100.00
4398;BME280;2213;49.720;7.296;2023-07-31T07:00:25;97804.38;;;18.57;100.00
4398;BME280;2213;49.720;7.296;2023-07-31T07:02:55;97809.28;;;18.65;100.00
4398;BME280;2213;49.720;7.296;2023-07-31T07:05:31;97790.56;;;18.72;100.00
4398;BME280;2213;49.720;7.296;2023-07-31T07:08:01;97796.44;;;18.74;100.00
4398;BME280;2213;49.720;7.296;2023-07-31T07:10:31;97798.00;;;18.75;100.00
4398;BME280;2213;49.720;7.296;2023-07-31T07:13:02;97791.19;;;18.79;100.00
4398;BME280;2213;49.720;7.296;2023-07-31T07:15:33;97793.34;;;18.82;100.00
4398;BME280;2213;49.720;7.296;2023-07-31T07:18:03;97797.69;;;18.88;100.00
4398;BME280;2213;49.720;7.296;2023-07-31T07:20:36;97798.03;;;18.96;100.00
4398;BME280;2213;49.720;7.296;2023-07-31T07:23:06;97802.28;;;18.97;100.00
4398;BME280;2213;49.720;7.296;2023-07-31T07:25:39;97787.25;;;19.03;100.00
4398;BME280;2213;49.720;7.296;2023-07-31T07:28:09;97797.41;;;19.11;100.00
4398;BME280;2213;49.720;7.296;2023-07-31T07:30:40;97793.72;;;19.12;100.00
4398;BME280;2213;49.720;7.296;2023-07-31T07:33:10;97795.06;;;19.15;100.00
4398;BME280;2213;49.720;7.296;2023-07-31T07:35:41;97787.13;;;19.15;100.00
4398;BME280;2213;49.720;7.296;2023-07-31T07:38:13;97783.44;;;19.16;100.00
4398;BME280;2213;49.720;7.296;2023-07-31T07:40:44;97773.44;;;19.23;100.00
4398;BME280;2213;49.720;7.296;2023-07-31T07:43:16;97785.94;;;19.27;100.00
4398;BME280;2213;49.720;7.296;2023-07-31T07:45:46;97777.97;;;19.27;100.00
4398;BME280;2213;49.720;7.296;2023-07-31T07:48:16;97772.97;;;19.31;100.00
4398;BME280;2213;49.720;7.296;2023-07-31T07:50:46;97780.63;;;19.27;100.00
4398;BME280;2213;49.720;7.296;2023-07-31T07:53:16;97767.44;;;19.32;100.00
4398;BME280;2213;49.720;7.296;2023-07-31T07:55:47;97777.47;;;19.30;100.00
4398;BME280;2213;49.720;7.296;2023-07-31T07:58:17;97781.50;;;19.33;100.00
4398;BME280;2213;49.720;7.296;2023-07-31T08:00:50;97769.31;;;19.37;100.00
4398;BME280;2213;49.720;7.296;2023-07-31T08:03:19;97767.72;;;19.36;100.00
4398;BME280;2213;49.720;7.296;2023-07-31T08:05:50;97757.94;;;19.36;100.00
4398;BME280;2213;49.720;7.296;2023-07-31T08:08:21;97759.84;;;19.41;100.00
4398;BME280;2213;49.720;7.296;2023-07-31T08:10:50;97754.84;;;19.44;100.00
4398;BME280;2213;49.720;7.296;2023-07-31T08:13:21;97745.34;;;19.48;100.00
4398;BME280;2213;49.720;7.296;2023-07-31T08:15:52;97735.59;;;19.54;100.00
4398;BME280;2213;49.720;7.296;2023-07-31T08:18:21;97737.47;;;19.58;100.00
4398;BME280;2213;49.720;7.296;2023-07-31T08:20:51;97739.63;;;19.62;100.00
4398;BME280;2213;49.720;7.296;2023-07-31T08:23:21;97744.13;;;19.61;100.00
4398;BME280;2213;49.720;7.296;2023-07-31T08:25:51;97739.09;;;19.65;100.00
4398;BME280;2213;49.720;7.296;2023-07-31T08:28:22;97728.31;;;19.71;100.00
4398;BME280;2213;49.720;7.296;2023-07-31T08:30:51;97720.88;;;19.73;100.00
4398;BME280;2213;49.720;7.296;2023-07-31T08:33:21;97723.06;;;19.81;100.00
4398;BME280;2213;49.720;7.296;2023-07-31T08:35:52;97720.75;;;19.90;100.00
4398;BME280;2213;49.720;7.296;2023-07-31T08:38:23;97728.47;;;19.96;100.00
4398;BME280;2213;49.720;7.296;2023-07-31T08:40:55;97740.25;;;20.05;100.00
4398;BME280;2213;49.720;7.296;2023-07-31T08:43:27;97735.22;;;20.09;100.00
4398;BME280;2213;49.720;7.296;2023-07-31T08:45:57;97741.63;;;20.13;100.00
4398;BME280;2213;49.720;7.296;2023-07-31T08:48:30;97737.63;;;20.10;100.00
4398;BME280;2213;49.720;7.296;2023-07-31T08:51:01;97733.09;;;20.06;100.00
4398;BME280;2213;49.720;7.296;2023-07-31T08:53:31;97731.78;;;20.14;100.00
4398;BME280;2213;49.720;7.296;2023-07-31T08:56:03;97734.72;;;20.17;100.00
4398;BME280;2213;49.720;7.296;2023-07-31T08:58:36;97722.00;;;20.19;100.00
4398;BME280;2213;49.720;7.296;2023-07-31T09:01:07;97720.94;;;20.20;100.00
4398;BME280;2213;49.720;7.296;2023-07-31T09:03:40;97717.25;;;20.21;100.00
4398;BME280;2213;49.720;7.296;2023-07-31T09:06:15;97721.53;;;20.27;100.00
4398;BME280;2213;49.720;7.296;2023-07-31T09:08:50;97729.81;;;20.31;100.00
4398;BME280;2213;49.720;7.296;2023-07-31T09:11:21;97708.31;;;20.32;100.00
4398;BME280;2213;49.720;7.296;2023-07-31T09:13:57;97720.25;;;20.30;100.00
4398;BME280;2213;49.720;7.296;2023-07-31T09:16:29;97715.22;;;20.33;100.00
4398;BME280;2213;49.720;7.296;2023-07-31T09:19:00;97710.47;;;20.40;100.00
4398;BME280;2213;49.720;7.296;2023-07-31T09:21:32;97707.03;;;20.40;100.00
4398;BME280;2213;49.720;7.296;2023-07-31T09:24:01;97701.19;;;20.48;100.00
4398;BME280;2213;49.720;7.296;2023-07-31T09:26:33;97699.91;;;20.50;100.00
4398;BME280;2213;49.720;7.296;2023-07-31T09:29:19;97706.78;;;20.51;100.00
4398;BME280;2213;49.720;7.296;2023-07-31T09:31:48;97708.16;;;20.59;100.00
4398;BME280;2213;49.720;7.296;2023-07-31T09:34:19;97711.09;;;20.63;100.00
4398;BME280;2213;49.720;7.296;2023-07-31T09:36:50;97703.13;;;20.63;100.00
4398;BME280;2213;49.720;7.296;2023-07-31T09:39:22;97712.47;;;20.65;100.00
4398;BME280;2213;49.720;7.296;2023-07-31T09:41:55;97705.81;;;20.68;100.00
4398;BME280;2213;49.720;7.296;2023-07-31T09:44:39;97707.97;;;20.76;100.00
4398;BME280;2213;49.720;7.296;2023-07-31T09:47:22;97692.53;;;20.73;100.00
4398;BME280;2213;49.720;7.296;2023-07-31T09:49:53;97701.06;;;20.80;100.00
4398;BME280;2213;49.720;7.296;2023-07-31T09:52:26;97701.63;;;20.82;100.00
4398;BME280;2213;49.720;7.296;2023-07-31T09:54:56;97714.88;;;20.77;100.00
4398;BME280;2213;49.720;7.296;2023-07-31T09:57:27;97713.81;;;20.73;100.00
4398;BME280;2213;49.720;7.296;2023-07-31T09:59:59;97718.63;;;20.81;100.00
4398;BME280;2213;49.720;7.296;2023-07-31T10:02:31;97723.69;;;20.82;100.00
4398;BME280;2213;49.720;7.296;2023-07-31T10:05:05;97710.09;;;20.74;100.00
4398;BME280;2213;49.720;7.296;2023-07-31T10:07:38;97706.38;;;20.75;100.00
4398;BME280;2213;49.720;7.296;2023-07-31T10:10:09;97701.06;;;20.80;100.00
4398;BME280;2213;49.720;7.296;2023-07-31T10:12:39;97698.16;;;20.86;100.00
4398;BME280;2213;49.720;7.296;2023-07-31T10:15:12;97697.66;;;20.94;100.00
4398;BME280;2213;49.720;7.296;2023-07-31T10:17:42;97684.13;;;20.96;100.00
4398;BME280;2213;49.720;7.296;2023-07-31T10:20:13;97685.72;;;21.02;100.00
4398;BME280;2213;49.720;7.296;2023-07-31T10:22:45;97683.63;;;21.14;100.00
4398;BME280;2213;49.720;7.296;2023-07-31T10:25:16;97674.06;;;21.18;100.00
4398;BME280;2213;49.720;7.296;2023-07-31T10:27:47;97674.91;;;21.24;100.00
4398;BME280;2213;49.720;7.296;2023-07-31T10:30:23;97666.66;;;21.35;100.00
4398;BME280;2213;49.720;7.296;2023-07-31T10:32:54;97667.47;;;21.41;99.68
4398;BME280;2213;49.720;7.296;2023-07-31T10:35:25;97663.47;;;21.48;99.44
4398;BME280;2213;49.720;7.296;2023-07-31T10:37:55;97672.78;;;21.61;100.00
4398;BME280;2213;49.720;7.296;2023-07-31T10:40:27;97663.75;;;21.62;97.07
4398;BME280;2213;49.720;7.296;2023-07-31T10:42:56;97654.16;;;21.61;94.80
4398;BME280;2213;49.720;7.296;2023-07-31T10:45:34;97652.28;;;21.67;94.74
4398;BME280;2213;49.720;7.296;2023-07-31T10:48:07;97656.53;;;21.68;93.93
4398;BME280;2213;49.720;7.296;2023-07-31T10:50:48;97662.13;;;21.61;91.38
4398;BME280;2213;49.720;7.296;2023-07-31T10:53:29;97661.88;;;21.57;92.00
4398;BME280;2213;49.720;7.296;2023-07-31T10:56:01;97656.53;;;21.68;93.65
4398;BME280;2213;49.720;7.296;2023-07-31T10:58:31;97640.28;;;21.74;92.78
4398;BME280;2213;49.720;7.296;2023-07-31T11:01:05;97644.28;;;21.77;92.25
4398;BME280;2213;49.720;7.296;2023-07-31T11:03:44;97644.25;;;21.87;92.59
4398;BME280;2213;49.720;7.296;2023-07-31T11:06:17;97658.91;;;21.84;90.13
4398;BME280;2213;49.720;7.296;2023-07-31T11:08:48;97641.34;;;21.88;90.59
4398;BME280;2213;49.720;7.296;2023-07-31T11:11:19;97657.06;;;21.85;89.84
4398;BME280;2213;49.720;7.296;2023-07-31T11:13:50;97657.06;;;21.85;89.73
4398;BME280;2213;49.720;7.296;2023-07-31T11:16:23;97661.84;;;21.88;90.29
4398;BME280;2213;49.720;7.296;2023-07-31T11:18:54;97663.44;;;21.89;89.23
4398;BME280;2213;49.720;7.296;2023-07-31T11:21:25;97669.84;;;21.83;89.96
4398;BME280;2213;49.720;7.296;2023-07-31T11:23:56;97670.34;;;21.80;89.12
4398;BME280;2213;49.720;7.296;2023-07-31T11:26:28;97668.50;;;21.80;89.77
4398;BME280;2213;49.720;7.296;2023-07-31T11:28:58;97680.50;;;21.83;89.65
4398;BME280;2213;49.720;7.296;2023-07-31T11:31:29;97659.19;;;21.78;90.82
4398;BME280;2213;49.720;7.296;2023-07-31T11:34:05;97663.97;;;21.81;90.26
4398;BME280;2213;49.720;7.296;2023-07-31T11:36:34;97673.28;;;21.88;90.42
4398;BME280;2213;49.720;7.296;2023-07-31T11:39:06;97663.44;;;21.94;91.11
4398;BME280;2213;49.720;7.296;2023-07-31T11:41:40;97672.53;;;21.93;90.38
4398;BME280;2213;49.720;7.296;2023-07-31T11:44:10;97658.41;;;21.92;89.88
4398;BME280;2213;49.720;7.296;2023-07-31T11:47:00;97656.53;;;21.78;90.63
4398;BME280;2213;49.720;7.296;2023-07-31T11:49:32;97664.78;;;21.81;91.07
4398;BME280;2213;49.720;7.296;2023-07-31T11:52:05;97657.84;;;21.85;91.50
4398;BME280;2213;49.720;7.296;2023-07-31T11:54:36;97648.00;;;21.86;91.92
4398;BME280;2213;49.720;7.296;2023-07-31T11:57:08;97644.00;;;21.83;91.21
4398;BME280;2213;49.720;7.296;2023-07-31T11:59:39;97654.13;;;21.86;91.09
4398;BME280;2213;49.720;7.296;2023-07-31T12:02:10;97644.56;;;21.90;91.39
4398;BME280;2213;49.720;7.296;2023-07-31T12:04:39;97657.88;;;21.95;90.38
4398;BME280;2213;49.720;7.296;2023-07-31T12:07:10;97656.00;;;21.91;90.29
4398;BME280;2213;49.720;7.296;2023-07-31T12:09:52;97640.53;;;21.88;90.29
4398;BME280;2213;49.720;7.296;2023-07-31T12:12:23;97647.22;;;21.95;91.42
4398;BME280;2213;49.720;7.296;2023-07-31T12:14:53;97640.53;;;21.88;90.06
4398;BME280;2213;49.720;7.296;2023-07-31T12:17:25;97641.63;;;21.92;90.42
4398;BME280;2213;49.720;7.296;2023-07-31T12:19:56;97633.59;;;21.87;90.29
4398;BME280;2213;49.720;7.296;2023-07-31T12:22:27;97634.16;;;21.94;91.52
4398;BME280;2213;49.720;7.296;2023-07-31T12:24:58;97620.28;;;21.87;91.10
4398;BME280;2213;49.720;7.296;2023-07-31T12:27:33;97615.78;;;21.87;91.84
4398;BME280;2213;49.720;7.296;2023-07-31T12:30:12;97617.13;;;21.85;91.57
4398;BME280;2213;49.720;7.296;2023-07-31T12:32:56;97625.66;;;21.92;92.28
4398;BME280;2213;49.720;7.296;2023-07-31T12:35:34;97630.47;;;21.90;91.35
4398;BME280;2213;49.720;7.296;2023-07-31T12:38:05;97636.81;;;21.84;91.93
4398;BME280;2213;49.720;7.296;2023-07-31T12:40:37;97628.84;;;21.74;91.62
4398;BME280;2213;49.720;7.296;2023-07-31T12:43:07;97626.72;;;21.76;92.47
4398;BME280;2213;49.720;7.296;2023-07-31T12:45:37;97625.66;;;21.82;92.99
4398;BME280;2213;49.720;7.296;2023-07-31T12:48:08;97612.34;;;21.72;93.27
4398;BME280;2213;49.720;7.296;2023-07-31T12:50:38;97612.88;;;21.74;94.08
4398;BME280;2213;49.720;7.296;2023-07-31T12:53:07;97612.88;;;21.79;93.97
4398;BME280;2213;49.720;7.296;2023-07-31T12:55:37;97600.88;;;21.81;95.39
4398;BME280;2213;49.720;7.296;2023-07-31T12:58:07;97608.59;;;21.88;94.90
4398;BME280;2213;49.720;7.296;2023-07-31T13:00:37;97613.94;;;21.93;95.03
4398;BME280;2213;49.720;7.296;2023-07-31T13:03:08;97622.19;;;21.96;95.01
4398;BME280;2213;49.720;7.296;2023-07-31T13:05:42;97597.16;;;21.82;94.27
4398;BME280;2213;49.720;7.296;2023-07-31T13:08:12;97607.84;;;21.67;95.93
4398;BME280;2213;49.720;7.296;2023-07-31T13:10:43;97610.25;;;21.69;97.16
4398;BME280;2213;49.720;7.296;2023-07-31T13:13:14;97621.94;;;21.73;97.89
4398;BME280;2213;49.720;7.296;2023-07-31T13:15:45;97615.53;;;21.74;98.44
4398;BME280;2213;49.720;7.296;2023-07-31T13:18:16;97618.72;;;21.86;97.57
4398;BME280;2213;49.720;7.296;2023-07-31T13:20:46;97615.00;;;21.77;97.85
4398;BME280;2213;49.720;7.296;2023-07-31T13:23:15;97618.75;;;21.66;98.38
4398;BME280;2213;49.720;7.296;2023-07-31T13:25:45;97615.03;;;21.56;100.00
4398;BME280;2213;49.720;7.296;2023-07-31T13:28:14;97618.22;;;21.69;100.00
4398;BME280;2213;49.720;7.296;2023-07-31T13:30:45;97621.41;;;21.66;100.00
4398;BME280;2213;49.720;7.296;2023-07-31T13:33:16;97618.50;;;21.57;100.00
4398;BME280;2213;49.720;7.296;2023-07-31T13:36:03;97624.88;;;21.51;100.00
4398;BME280;2213;49.720;7.296;2023-07-31T13:38:33;97612.91;;;21.53;100.00